Macatuba, Brazil
Current Conditions -  °F | °C
As of 3:00 PM on Thursday 18 Dec 2014 (Local Time) from SBBU Reporting Station
Clear Clear  
Wind Chill: 91°   Ceiling: Unl
Heat Index: 98°   Visibility: 6mi
Dew Point: 72°   Wind: 5mph
Humidity: 52%   Direction: 330°NNW
Pressure: 29.83"   Gusts: NA
Location:  22.5°S, 48.71°W
Report Text: SBBU 181700Z 33004KT CAVOK 33/22 Q1010
Loading
Personal Weather Stations






























Interactive Weather Map New forecast layout! Learn more

10-Day Weather Forecast

Advertisements
Track Severe Weather on mobile